Latest Weather Observations for Gosford

IDN60901

Issued at 5:21 pm EDT Sunday 29 January 2023 (issued every 10 minutes, with the page automatically refreshed every 10 minutes)

About weather observations | Map of Sydney area stations | Latest observations for Sydney area | Other Formats
Station Details ID: 061425 Name: GOSFORD AWS Lat: -33.44 Lon: 151.36 Height: 7.0 m
Data from the previous 72 hours. | See also: Recent months at Gosford
Date/Time
EDT
Temp
°C
App
Temp
°C
Dew
Point
°C
Rel
Hum
%
Delta-T
°C
Wind Press
QNH
hPa
Press
MSL
hPa
Rain since
9am
mm
Dir  Spd
km/h
Gust
km/h
Spd
kts
Gust
kts
29/05:00pm 23.5 26.1 21.2 87 1.5 WNW 9 19 5 10 - - 0.2
29/04:30pm 24.2 23.8 20.1 78 2.7 W 22 39 12 21 - - 0.0
29/04:00pm 26.4 30.4 22.7 80 2.5 ESE 6 9 3 5 - - 0.0
29/03:30pm 27.5 30.6 22.9 76 3.1 ESE 11 19 6 10 - - 0.0
29/03:00pm 29.0 31.6 22.7 69 4.3 ESE 13 17 7 9 - - 0.0
29/02:30pm 29.6 32.1 23.1 68 4.5 ESE 15 22 8 12 - - 0.0
29/02:00pm 30.3 33.8 23.5 67 4.7 ESE 11 17 6 9 - - 0.0
29/01:30pm 29.2 31.9 23.4 71 4.0 E 15 22 8 12 - - 0.0
29/01:00pm 30.3 34.1 24.0 69 4.4 E 11 17 6 9 - - 0.0
29/12:30pm 30.1 33.8 23.3 67 4.7 SE 9 13 5 7 - - 0.0
29/12:00pm 29.9 33.5 23.8 70 4.2 E 11 17 6 9 - - 0.0
29/11:30am 30.5 35.2 23.4 66 4.9 N 4 9 2 5 - - 0.0
29/11:00am 29.5 34.8 23.7 71 4.0 ENE 2 7 1 4 - - 0.0
29/10:30am 28.0 33.4 23.2 75 3.3 CALM 0 2 0 1 - - 0.0
29/10:00am 26.8 31.4 23.1 80 2.5 N 4 7 2 4 - - 0.0
29/09:30am 26.2 30.8 23.1 83 2.1 NNW 4 9 2 5 - - 0.0
29/09:00am 25.6 30.1 22.9 85 1.8 NE 4 7 2 4 - - 0.0
29/08:30am 25.5 30.1 23.2 87 1.6 N 4 7 2 4 - - 0.0
29/08:00am 24.8 29.1 22.7 88 1.4 NNE 4 7 2 4 - - 0.0
29/07:30am 24.6 28.9 22.7 89 1.3 N 4 6 2 3 - - 0.0
29/07:00am 24.4 29.4 22.5 89 1.3 CALM 0 0 0 0 - - 0.0
29/06:30am 24.3 29.0 22.7 91 1.1 ENE 2 4 1 2 - - 0.0
29/06:00am 24.3 28.6 22.7 91 1.1 ENE 4 6 2 3 - - 0.0
29/05:30am 24.3 28.6 22.6 90 1.1 NE 4 7 2 4 - - 0.0
29/05:00am 24.3 28.6 22.7 91 1.1 NE 4 7 2 4 - - 0.0
29/04:30am 24.4 29.6 22.8 91 1.1 CALM 0 0 0 0 - - 0.0
29/04:00am 24.2 29.3 22.6 91 1.1 CALM 0 0 0 0 - - 0.0
29/03:30am 24.2 28.9 22.6 91 1.1 NNE 2 4 1 2 - - 0.0
29/03:00am 24.3 29.0 22.7 91 1.1 NNE 2 6 1 3 - - 0.0
29/02:30am 24.6 29.1 23.0 91 1.1 NE 4 6 2 3 - - 0.0
29/02:00am 24.3 28.8 22.9 92 0.9 NE 4 6 2 3 - - 0.0
29/01:30am 24.3 27.8 22.9 92 0.9 ENE 9 13 5 7 - - 0.0
29/01:00am 24.4 28.3 23.0 92 0.9 ENE 7 9 4 5 - - 0.0
29/12:30am 24.4 27.9 22.8 91 1.1 ENE 9 17 5 9 - - 0.0
29/12:00am 24.5 28.0 22.9 91 1.1 NE 9 17 5 9 - - 0.0
 
Date/Time
EDT
Temp
°C
App
Temp
°C
Dew
Point
°C
Rel
Hum
%
Delta-T
°C
Wind Press
QNH
hPa
Press
MSL
hPa
Rain since
9am
mm
Dir  Spd
km/h
Gust
km/h
Spd
kts
Gust
kts
28/11:30pm 24.6 27.8 23.0 91 1.1 ENE 11 19 6 10 - - 0.0
28/11:00pm 24.6 28.1 22.8 90 1.2 ENE 9 19 5 10 - - 0.0
28/10:30pm 24.6 28.1 22.8 90 1.2 ENE 9 15 5 8 - - 0.0
28/10:00pm 24.8 28.0 23.0 90 1.2 ENE 11 17 6 9 - - 0.0
28/09:30pm 24.8 28.3 22.9 89 1.3 ENE 9 13 5 7 - - 0.0
28/09:00pm 25.1 28.3 23.0 88 1.4 NE 11 15 6 8 - - 0.0
28/08:30pm 25.2 28.3 22.9 87 1.6 NE 11 17 6 9 - - 0.0
28/08:00pm 25.6 28.7 22.9 85 1.8 NE 11 24 6 13 - - 0.0
28/07:30pm 26.2 28.8 22.7 81 2.4 NE 13 22 7 12 - - 0.0
28/07:00pm 26.7 28.6 22.8 79 2.6 ENE 17 28 9 15 - - 0.0
28/06:30pm 27.6 30.0 23.0 76 3.1 NE 15 26 8 14 - - 0.0
28/06:00pm 28.1 29.9 22.6 72 3.7 ENE 17 30 9 16 - - 0.0
28/05:30pm 27.9 29.2 22.4 72 3.7 ENE 19 30 10 16 - - 0.0
28/05:00pm 28.1 29.5 22.8 73 3.6 ENE 20 28 11 15 - - 0.0
28/04:30pm 28.5 29.8 22.7 71 3.9 ENE 20 30 11 16 - - 0.0
28/04:00pm 28.6 29.6 22.1 68 4.4 ENE 20 30 11 16 - - 0.0
28/03:30pm 29.1 29.3 21.3 62 5.2 ENE 22 33 12 18 - - 0.0
28/03:00pm 28.5 29.4 22.0 68 4.4 ENE 20 30 11 16 - - 0.0
28/02:30pm 28.7 30.3 22.2 68 4.4 E 17 28 9 15 - - 0.0
28/02:00pm 29.4 31.4 23.6 71 4.0 E 19 30 10 16 - - 0.0
28/01:30pm 28.5 30.9 23.0 72 3.8 E 15 26 8 14 - - 0.0
28/01:00pm 29.0 31.3 22.7 69 4.3 E 15 22 8 12 - - 0.0
28/12:30pm 28.7 31.2 22.4 68 4.3 E 13 20 7 11 - - 0.0
28/12:00pm 28.9 32.1 23.1 71 4.0 E 11 17 6 9 - - 0.0
28/11:30am 29.3 32.8 22.8 68 4.4 SE 9 15 5 8 - - 0.0
28/11:00am 29.1 33.0 22.6 68 4.4 N 6 11 3 6 - - 0.0
28/10:30am 27.4 31.6 22.4 74 3.4 S 4 7 2 4 - - 0.0
28/10:00am 27.1 31.3 22.5 76 3.1 S 4 7 2 4 - - 0.0
28/09:30am 25.7 29.8 22.2 81 2.3 WSW 4 6 2 3 - - 0.0
28/09:00am 25.4 29.5 22.3 83 2.1 SSE 4 6 2 3 - - 0.4
28/08:30am 24.4 28.9 22.3 88 1.4 WSW 2 6 1 3 - - 0.4
28/08:00am 24.0 28.6 22.4 91 1.1 WSW 2 4 1 2 - - 0.4
28/07:30am 23.3 26.9 22.1 93 0.8 W 6 7 3 4 - - 0.4
28/07:00am 22.9 27.7 22.2 96 0.5 CALM 0 4 0 2 - - 0.4
28/06:30am 22.1 26.5 21.4 96 0.5 CALM 0 0 0 0 - - 0.4
28/06:00am 22.0 26.4 21.3 96 0.5 CALM 0 0 0 0 - - 0.4
28/05:30am 22.1 26.5 21.3 95 0.5 CALM 0 0 0 0 - - 0.4
28/05:00am 22.1 26.5 21.3 95 0.5 CALM 0 0 0 0 - - 0.4
28/04:30am 22.0 26.3 21.2 95 0.5 CALM 0 0 0 0 - - 0.4
28/04:00am 21.9 26.2 21.1 95 0.5 CALM 0 0 0 0 - - 0.4
28/03:30am 22.1 26.5 21.3 95 0.5 CALM 0 0 0 0 - - 0.4
28/03:00am 22.4 26.8 21.4 94 0.7 CALM 0 0 0 0 - - 0.4
28/02:30am 22.3 26.6 21.1 93 0.8 CALM 0 0 0 0 - - 0.4
28/02:00am 22.4 26.7 21.2 93 0.8 CALM 0 0 0 0 - - 0.4
28/01:30am 22.3 26.5 20.9 92 0.9 CALM 0 0 0 0 - - 0.4
28/01:00am 22.7 27.0 21.2 91 1.0 CALM 0 0 0 0 - - 0.4
28/12:30am 23.0 26.7 21.5 91 1.0 ENE 4 6 2 3 - - 0.4
28/12:00am 23.7 27.3 22.3 92 0.9 ENE 7 13 4 7 - - 0.4
 
Date/Time
EDT
Temp
°C
App
Temp
°C
Dew
Point
°C
Rel
Hum
%
Delta-T
°C
Wind Press
QNH
hPa
Press
MSL
hPa
Rain since
9am
mm
Dir  Spd
km/h
Gust
km/h
Spd
kts
Gust
kts
27/11:30pm 23.9 28.2 22.7 93 0.8 ENE 4 6 2 3 - - 0.4
27/11:00pm 24.2 28.2 22.8 92 0.9 E 6 7 3 4 - - 0.4
27/10:30pm 24.3 28.4 22.9 92 0.9 ENE 6 7 3 4 - - 0.4
27/10:00pm 24.7 28.2 22.9 90 1.2 ENE 9 19 5 10 - - 0.2
27/09:30pm 24.8 28.6 22.7 88 1.4 ENE 7 15 4 8 - - 0.2
27/09:00pm 24.8 29.0 22.5 87 1.5 ENE 4 7 2 4 - - 0.2
27/08:30pm 24.8 28.4 22.1 85 1.8 ENE 6 9 3 5 - - 0.2
27/08:00pm 24.9 28.2 21.8 83 2.1 ENE 7 13 4 7 - - 0.2
27/07:30pm 24.9 28.2 21.8 83 2.1 NE 7 13 4 7 - - 0.2
27/07:00pm 25.2 28.7 21.9 82 2.2 E 6 9 3 5 - - 0.2
27/06:30pm 24.8 28.3 21.9 84 1.9 SSE 6 13 3 7 - - 0.2
27/06:00pm 24.8 27.8 21.9 84 1.9 SSE 9 15 5 8 - - 0.2
27/05:30pm 24.8 27.6 21.5 82 2.2 SSE 9 15 5 8 - - 0.2
27/05:00pm 25.0 27.2 21.1 79 2.6 SSE 11 22 6 12 - - 0.2
27/04:30pm 25.8 27.9 21.0 75 3.2 SSE 11 20 6 11 - - 0.2
27/04:00pm 25.6 27.5 21.3 77 2.8 S 13 22 7 12 - - 0.2
27/03:30pm 25.8 27.8 21.5 77 2.9 S 13 20 7 11 - - 0.2
27/03:00pm 25.9 27.6 20.9 74 3.3 S 13 20 7 11 - - 0.2
27/02:30pm 25.9 28.3 21.6 77 2.9 S 11 17 6 9 - - 0.2
27/02:00pm 25.3 26.2 20.8 76 3.0 S 17 26 9 14 - - 0.2
27/01:30pm 24.4 24.7 20.5 79 2.5 S 19 28 10 15 - - 0.2
27/01:00pm 24.6 25.7 20.5 78 2.7 S 15 26 8 14 - - 0.2
27/12:30pm 24.9 26.2 20.8 78 2.7 SSE 15 22 8 12 - - 0.2
27/12:00pm 25.6 27.4 21.1 76 3.0 S 13 20 7 11 - - 0.2
27/11:30am 25.0 27.2 21.1 79 2.6 SSW 11 17 6 9 - - 0.2
27/11:00am 25.3 26.9 20.8 76 3.0 S 13 19 7 10 - - 0.2
27/10:30am 25.0 27.5 21.1 79 2.6 SSW 9 17 5 9 - - 0.0
27/10:00am 24.5 27.0 21.0 81 2.3 SSW 9 17 5 9 - - 0.0
27/09:30am 24.4 26.8 20.9 81 2.3 SSW 9 17 5 9 - - 0.0
27/09:00am 23.8 26.1 20.7 83 2.0 SW 9 15 5 8 - - 1.4
27/08:30am 23.1 25.7 20.4 85 1.7 SW 7 11 4 6 - - 1.4
27/08:00am 22.7 25.2 20.2 86 1.6 SW 7 11 4 6 - - 1.4
27/07:30am 22.5 25.2 20.2 87 1.5 SW 6 11 3 6 - - 1.4
27/07:00am 22.4 25.2 20.5 89 1.2 SW 6 9 3 5 - - 1.4
27/06:30am 22.2 24.9 20.3 89 1.2 SSW 6 11 3 6 - - 1.4
27/06:00am 22.1 24.6 20.2 89 1.2 SSW 7 13 4 7 - - 1.4
27/05:30am 22.1 24.3 20.4 90 1.1 SSW 9 15 5 8 - - 1.4
27/05:00am 22.2 24.0 20.3 89 1.2 S 11 20 6 11 - - 1.4
27/04:30am 22.4 25.8 20.9 91 1.0 SW 4 6 2 3 - - 1.4
27/04:00am 22.3 25.3 20.9 92 0.9 SW 6 7 3 4 - - 1.4
27/03:30am 22.3 25.4 21.1 93 0.8 WSW 6 7 3 4 - - 1.4
27/03:00am 21.6 24.6 20.9 96 0.5 WSW 6 9 3 5 - - 1.4
27/02:30am 19.8 23.1 19.0 95 0.5 CALM 0 0 0 0 - - 1.4
27/02:00am 20.1 23.5 19.3 95 0.5 CALM 0 0 0 0 - - 1.4
27/01:30am 19.9 23.1 18.9 94 0.6 CALM 0 0 0 0 - - 1.4
27/01:00am 20.2 23.5 19.2 94 0.6 CALM 0 0 0 0 - - 1.4
27/12:30am 20.3 23.7 19.3 94 0.6 CALM 0 0 0 0 - - 1.4
27/12:00am 20.1 22.9 18.9 93 0.8 SW 2 6 1 3 - - 1.4
 
Date/Time
EDT
Temp
°C
App
Temp
°C
Dew
Point
°C
Rel
Hum
%
Delta-T
°C
Wind Press
QNH
hPa
Press
MSL
hPa
Rain since
9am
mm
Dir  Spd
km/h
Gust
km/h
Spd
kts
Gust
kts
26/11:30pm 20.4 23.7 19.1 92 0.8 CALM 0 4 0 2 - - 1.4
26/11:00pm 20.6 23.8 18.9 90 1.1 CALM 0 0 0 0 - - 1.4
26/10:30pm 21.2 23.2 18.8 86 1.5 N 6 9 3 5 - - 1.4
26/10:00pm 21.9 22.6 18.9 83 1.9 E 13 20 7 11 - - 1.4
26/09:30pm 21.8 23.7 19.0 84 1.8 SW 7 17 4 9 - - 1.2
26/09:00pm 22.9 22.4 17.8 73 3.2 NNW 17 26 9 14 - - 0.4
26/08:30pm 24.6 28.4 21.7 84 1.9 WNW 4 9 2 5 - - 0.4
26/08:00pm 24.8 28.4 22.1 85 1.8 NNE 6 13 3 7 - - 0.4
26/07:30pm 25.0 29.5 22.3 85 1.8 ESE 2 11 1 6 - - 0.4
26/07:00pm 25.3 29.0 22.2 83 2.1 E 6 11 3 6 - - 0.4
26/06:30pm 25.2 29.2 22.1 83 2.1 E 4 7 2 4 - - 0.4
26/06:00pm 25.8 29.5 22.3 81 2.3 E 6 9 3 5 - - 0.4
26/05:30pm 25.5 29.1 22.4 83 2.1 E 7 15 4 8 - - 0.4

Latest Capital City Observations: Canberra | Sydney | Melbourne | Brisbane | Adelaide | Perth | Hobart | Darwin

Other formats

Comma delimited format used in spreadsheet applications
http://www.bom.gov.au/fwo/IDN60901/IDN60901.94782.axf

JavaScript Object Notation format (JSON) in row-major order
http://www.bom.gov.au/fwo/IDN60901/IDN60901.94782.json

Data quality

Most of these data are generated automatically and are frequently updated. Quality checks on data are not normally performed. It is possible for incorrect values to appear. Refer to information at About Latest Weather Observations and please check the disclaimer before using these data.